Time;durP1;ratioP1;P1;durP2;ratioP2;P2;SDS_P1;SDS_P2;PMS_P1;PMS_P2;Temp;Humidity;BMP_temperature;BMP_pressure;BME280_temperature;BME280_humidity;BME280_pressure;Samples;Min_cycle;Max_cycle;Signal;HPM_P1;HPM_P2
2022/10/29 00:00:56;;;;;;;8.40;8.20;;;13.90;99.90;;;;;;5082855;28;20222;-82
2022/10/29 00:03:25;;;;;;;8.40;8.20;;;13.90;99.90;;;;;;5083416;28;20258;-82
2022/10/29 00:06:03;;;;;;;8.20;8.00;;;13.90;99.90;;;;;;5082519;28;20260;-82
2022/10/29 01:45:35;;;;;;;8.43;8.23;;;13.30;99.90;;;;;;5079193;28;20234;-83
2022/10/29 01:48:09;;;;;;;8.20;8.00;;;13.30;99.90;;;;;;5080723;28;20221;-83
2022/10/29 01:50:41;;;;;;;8.13;7.93;;;13.20;99.90;;;;;;5080602;28;20237;-83
2022/10/29 01:53:10;;;;;;;8.30;8.10;;;13.20;99.90;;;;;;5080317;28;20300;-83
2022/10/29 01:55:39;;;;;;;8.40;8.20;;;13.20;99.90;;;;;;5080420;28;20258;-82
2022/10/29 01:58:09;;;;;;;8.53;8.33;;;13.20;99.90;;;;;;5080385;28;20222;-81
2022/10/29 02:00:52;;;;;;;8.23;8.03;;;13.20;99.90;;;;;;5080487;28;20217;-81
2022/10/29 02:03:31;;;;;;;8.30;8.10;;;13.30;99.90;;;;;;5079932;28;20260;-81
2022/10/29 02:06:13;;;;;;;8.20;8.00;;;13.20;99.90;;;;;;5080935;28;20290;-81
2022/10/29 02:08:50;;;;;;;8.40;8.20;;;13.20;99.90;;;;;;5081934;28;20333;-81
2022/10/29 02:11:25;;;;;;;8.30;8.10;;;13.20;99.90;;;;;;5088460;28;20230;-81
2022/10/29 02:13:59;;;;;;;8.47;8.27;;;13.20;99.90;;;;;;5093953;28;20289;-81
2022/10/29 02:16:30;;;;;;;8.50;8.30;;;13.30;99.90;;;;;;5094578;28;20337;-81
2022/10/29 02:18:58;;;;;;;8.53;8.33;;;13.30;99.90;;;;;;5087181;28;20349;-81
2022/10/29 02:21:26;;;;;;;8.40;8.20;;;13.20;99.90;;;;;;5082422;28;20332;-82
2022/10/29 02:23:54;;;;;;;8.40;8.20;;;13.20;99.90;;;;;;5081926;28;20265;-82
2022/10/29 02:26:21;;;;;;;8.00;7.80;;;13.20;99.90;;;;;;5081549;28;20313;-82
2022/10/29 02:28:49;;;;;;;8.10;7.90;;;13.20;99.90;;;;;;5081392;28;20238;-82
2022/10/29 02:31:17;;;;;;;8.07;7.87;;;13.30;99.90;;;;;;5081037;28;20230;-82
2022/10/29 02:33:47;;;;;;;8.23;8.03;;;13.20;99.90;;;;;;5081580;28;20261;-82
2022/10/29 02:36:17;;;;;;;8.50;8.30;;;13.20;99.90;;;;;;5080615;28;20705;-81
2022/10/29 02:38:47;;;;;;;8.10;7.90;;;13.20;99.90;;;;;;5081047;28;20290;-82
2022/10/29 02:41:16;;;;;;;8.30;8.10;;;13.20;99.90;;;;;;5079591;28;20226;-81
2022/10/29 02:43:45;;;;;;;8.70;8.50;;;13.10;99.90;;;;;;5080281;28;20261;-82
2022/10/29 02:46:16;;;;;;;8.40;8.20;;;13.10;99.90;;;;;;5080932;28;20313;-81
2022/10/29 02:48:48;;;;;;;8.27;8.07;;;13.10;99.90;;;;;;5079448;28;20587;-82
2022/10/29 02:51:16;;;;;;;8.40;8.20;;;13.10;99.90;;;;;;5080293;28;20242;-82
2022/10/29 02:53:44;;;;;;;8.20;8.00;;;13.00;99.90;;;;;;5079890;28;20236;-82
2022/10/29 02:56:13;;;;;;;8.57;8.37;;;13.00;99.90;;;;;;5079406;28;20222;-82
2022/10/29 02:58:40;;;;;;;8.33;8.13;;;13.10;99.90;;;;;;5080300;28;20230;-82
2022/10/29 03:01:10;;;;;;;8.50;8.30;;;13.00;99.90;;;;;;5079110;28;20318;-82
2022/10/29 03:03:39;;;;;;;8.20;8.00;;;13.00;99.90;;;;;;5080603;28;20297;-82
2022/10/29 03:06:16;;;;;;;8.70;8.50;;;13.00;99.90;;;;;;5079488;28;20261;-81
2022/10/29 03:08:44;;;;;;;8.43;8.23;;;13.00;99.90;;;;;;5079838;28;20226;-82
2022/10/29 03:11:12;;;;;;;8.30;8.10;;;12.90;99.90;;;;;;5079909;28;20262;-82
2022/10/29 03:13:40;;;;;;;8.50;8.30;;;12.90;99.90;;;;;;5079257;28;20231;-81
2022/10/29 03:16:08;;;;;;;8.10;7.90;;;12.90;99.90;;;;;;5083114;28;20238;-82
2022/10/29 03:18:36;;;;;;;8.27;8.07;;;12.90;99.90;;;;;;5083513;28;20237;-82
2022/10/29 03:21:04;;;;;;;8.30;8.10;;;12.80;99.90;;;;;;5084724;28;20264;-82
2022/10/29 03:23:33;;;;;;;8.40;8.20;;;12.70;99.90;;;;;;5099537;28;20226;-81
2022/10/29 03:26:01;;;;;;;8.40;8.20;;;12.70;99.90;;;;;;5101067;28;20235;-82
2022/10/29 03:28:30;;;;;;;8.50;8.30;;;12.70;99.90;;;;;;5100728;28;20206;-81
2022/10/29 03:31:00;;;;;;;8.27;8.07;;;12.60;99.90;;;;;;5100821;28;20237;-82
2022/10/29 03:33:27;;;;;;;8.40;8.20;;;12.60;99.90;;;;;;5100510;28;20233;-81
2022/10/29 03:35:58;;;;;;;8.40;8.20;;;12.50;99.90;;;;;;5100025;28;20256;-81
2022/10/29 03:38:27;;;;;;;8.40;8.20;;;12.50;99.90;;;;;;5098887;28;20213;-81
2022/10/29 03:40:57;;;;;;;8.60;8.40;;;12.40;99.90;;;;;;5086975;28;20257;-80
2022/10/29 03:43:25;;;;;;;8.43;8.23;;;12.40;99.90;;;;;;5085482;28;20233;-81
2022/10/29 03:45:53;;;;;;;9.00;8.70;;;12.30;99.90;;;;;;5084183;28;20321;-82
2022/10/29 03:48:22;;;;;;;8.43;8.23;;;12.30;99.90;;;;;;5082918;28;20298;-81
2022/10/29 03:50:56;;;;;;;8.50;8.30;;;12.30;99.90;;;;;;5082469;28;20238;-82
2022/10/29 03:53:24;;;;;;;8.53;8.33;;;12.20;99.90;;;;;;5082016;28;20233;-82
2022/10/29 03:55:51;;;;;;;8.60;8.40;;;12.30;99.90;;;;;;5082770;28;20248;-82
2022/10/29 03:58:24;;;;;;;9.00;8.70;;;12.20;99.90;;;;;;5082559;28;20277;-82
2022/10/29 04:00:57;;;;;;;8.90;8.60;;;12.20;99.90;;;;;;5084048;28;20281;-81
2022/10/29 04:03:27;;;;;;;8.70;8.50;;;12.20;99.90;;;;;;5084233;28;20234;-81
2022/10/29 04:05:56;;;;;;;8.90;8.60;;;12.10;99.90;;;;;;5084144;28;20317;-82
2022/10/29 04:08:24;;;;;;;8.53;8.33;;;12.10;99.90;;;;;;5084119;28;20230;-81
2022/10/29 04:10:52;;;;;;;8.60;8.40;;;12.10;99.90;;;;;;5082648;28;20234;-81
2022/10/29 04:13:22;;;;;;;8.70;8.50;;;12.20;99.90;;;;;;5082788;28;20265;-81
2022/10/29 04:15:55;;;;;;;8.90;8.60;;;12.20;99.90;;;;;;5082335;28;20230;-81
2022/10/29 04:18:24;;;;;;;8.50;8.30;;;12.20;99.90;;;;;;5082683;28;20233;-81
2022/10/29 04:20:53;;;;;;;8.93;8.63;;;12.20;99.90;;;;;;5082779;28;20253;-81
2022/10/29 04:23:22;;;;;;;8.50;8.30;;;12.10;99.90;;;;;;5082273;28;20317;-81
2022/10/29 04:25:57;;;;;;;8.70;8.50;;;12.10;99.90;;;;;;5082111;28;20256;-81
2022/10/29 04:28:26;;;;;;;8.60;8.40;;;12.10;99.90;;;;;;5082208;28;20230;-81
2022/10/29 04:30:54;;;;;;;8.60;8.40;;;12.10;99.90;;;;;;5083614;28;20333;-81
2022/10/29 04:33:23;;;;;;;8.60;8.40;;;12.10;99.90;;;;;;5082104;28;20305;-81
2022/10/29 04:35:55;;;;;;;8.73;8.53;;;12.10;99.90;;;;;;5081432;28;20265;-81
2022/10/29 04:38:23;;;;;;;8.80;8.60;;;12.10;99.90;;;;;;5081443;28;20230;-81
2022/10/29 04:40:52;;;;;;;8.60;8.40;;;12.10;99.90;;;;;;5080843;28;20261;-82
2022/10/29 04:43:20;;;;;;;8.30;8.10;;;12.10;99.90;;;;;;5082172;28;20260;-81
2022/10/29 04:45:54;;;;;;;8.60;8.40;;;12.00;99.90;;;;;;5082197;28;20230;-81
2022/10/29 04:48:22;;;;;;;8.70;8.50;;;12.00;99.90;;;;;;5082407;28;20269;-82
2022/10/29 04:50:50;;;;;;;8.70;8.50;;;12.00;99.90;;;;;;5081802;28;20792;-81
2022/10/29 04:53:18;;;;;;;8.37;8.17;;;12.00;99.90;;;;;;5081697;28;20269;-81
2022/10/29 04:55:47;;;;;;;8.70;8.50;;;12.00;99.90;;;;;;5081465;28;20317;-82
2022/10/29 04:58:18;;;;;;;8.60;8.40;;;11.90;99.90;;;;;;5082107;28;20219;-81
2022/10/29 05:00:48;;;;;;;8.43;8.23;;;11.90;99.90;;;;;;5081343;28;20226;-82
2022/10/29 05:03:17;;;;;;;8.70;8.50;;;11.90;99.90;;;;;;5081716;28;20242;-81
2022/10/29 05:05:46;;;;;;;8.80;8.60;;;11.80;99.90;;;;;;5081419;28;20238;-81
2022/10/29 05:08:14;;;;;;;8.73;8.53;;;11.70;99.90;;;;;;5081486;28;20230;-81
2022/10/29 05:10:43;;;;;;;8.63;8.43;;;11.70;99.90;;;;;;5081821;28;20241;-81
2022/10/29 05:13:13;;;;;;;8.63;8.43;;;11.70;99.90;;;;;;5081853;28;20324;-81
2022/10/29 05:15:42;;;;;;;8.70;8.50;;;11.70;99.90;;;;;;5081011;28;20234;-81
2022/10/29 05:18:12;;;;;;;8.70;8.50;;;11.60;99.90;;;;;;5081347;28;20218;-81
2022/10/29 05:20:45;;;;;;;8.90;8.60;;;11.60;99.90;;;;;;5080652;28;20237;-81
2022/10/29 05:23:13;;;;;;;8.60;8.40;;;11.60;99.90;;;;;;5081387;28;20264;-81
2022/10/29 05:25:42;;;;;;;8.50;8.30;;;11.60;99.90;;;;;;5081547;28;20234;-81
2022/10/29 05:28:13;;;;;;;8.67;8.47;;;11.60;99.90;;;;;;5082495;28;20232;-81
2022/10/29 05:30:42;;;;;;;8.20;8.00;;;11.70;99.90;;;;;;5089684;28;20242;-82
2022/10/29 05:33:12;;;;;;;8.30;8.10;;;11.70;99.90;;;;;;5086056;28;20287;-82
2022/10/29 05:35:41;;;;;;;8.50;8.30;;;11.70;99.90;;;;;;5093298;28;20250;-82
2022/10/29 05:38:14;;;;;;;8.23;8.03;;;11.70;99.90;;;;;;5095737;28;20217;-81
2022/10/29 05:40:44;;;;;;;8.40;8.20;;;11.70;99.90;;;;;;5096657;28;20237;-81
2022/10/29 05:43:12;;;;;;;8.40;8.20;;;11.70;99.90;;;;;;5096087;28;20241;-82
2022/10/29 05:45:39;;;;;;;8.53;8.33;;;11.70;99.90;;;;;;5097740;28;20290;-81
2022/10/29 05:48:08;;;;;;;8.53;8.33;;;11.70;99.90;;;;;;5097483;28;20218;-82
2022/10/29 05:50:37;;;;;;;9.07;8.77;;;11.70;99.90;;;;;;5096807;28;20290;-81
2022/10/29 05:53:09;;;;;;;8.70;8.50;;;11.70;99.90;;;;;;5097244;28;20316;-81
2022/10/29 05:55:37;;;;;;;9.03;8.73;;;11.70;99.90;;;;;;5095891;28;20249;-81
2022/10/29 05:58:06;;;;;;;8.97;8.67;;;11.70;99.90;;;;;;5090458;28;20234;-81
2022/10/29 06:00:37;;;;;;;9.30;9.00;;;11.70;99.90;;;;;;5090339;28;20257;-82
2022/10/29 06:03:11;;;;;;;9.30;9.00;;;11.80;99.90;;;;;;5090959;28;20265;-82
2022/10/29 06:05:40;;;;;;;9.23;8.93;;;11.80;99.90;;;;;;5083596;28;20222;-81
2022/10/29 06:08:09;;;;;;;8.93;8.63;;;11.80;99.90;;;;;;5081849;28;20260;-82
2022/10/29 06:10:39;;;;;;;9.40;9.10;;;11.80;99.90;;;;;;5084162;28;20234;-81
2022/10/29 06:13:11;;;;;;;8.90;8.60;;;11.80;99.90;;;;;;5080176;28;20245;-82
2022/10/29 06:15:41;;;;;;;8.60;8.40;;;11.80;99.90;;;;;;5081371;28;20238;-82
2022/10/29 06:18:09;;;;;;;9.03;8.73;;;11.80;99.90;;;;;;5079769;28;20261;-81
2022/10/29 06:20:38;;;;;;;9.10;8.80;;;11.80;99.90;;;;;;5080479;28;20256;-82
2022/10/29 06:23:07;;;;;;;8.90;8.60;;;11.70;99.90;;;;;;5082032;28;20316;-81
2022/10/29 06:25:38;;;;;;;8.90;8.60;;;11.70;99.90;;;;;;5081576;28;20269;-81
2022/10/29 06:28:08;;;;;;;9.20;8.90;;;11.70;99.90;;;;;;5082385;28;20241;-81
2022/10/29 06:30:36;;;;;;;9.03;8.73;;;11.70;99.90;;;;;;5081883;28;20230;-81
2022/10/29 06:33:06;;;;;;;9.00;8.70;;;11.80;99.90;;;;;;5081120;28;20234;-81
2022/10/29 06:35:38;;;;;;;9.00;8.70;;;11.80;99.90;;;;;;5081622;28;20281;-82
2022/10/29 06:38:06;;;;;;;9.30;9.00;;;11.80;99.90;;;;;;5081419;28;20321;-81
2022/10/29 06:40:35;;;;;;;9.10;8.80;;;11.90;99.90;;;;;;5081057;28;20301;-81
2022/10/29 06:43:07;;;;;;;8.60;8.40;;;11.90;99.90;;;;;;5079569;28;20302;-81
2022/10/29 06:45:35;;;;;;;8.90;8.60;;;12.00;99.90;;;;;;5079950;28;20298;-81
2022/10/29 06:48:04;;;;;;;8.73;8.47;;;12.10;99.90;;;;;;5080715;28;20265;-81
2022/10/29 06:50:33;;;;;;;8.90;8.60;;;12.10;99.90;;;;;;5081944;28;20292;-81
2022/10/29 06:53:03;;;;;;;8.93;8.63;;;12.20;99.90;;;;;;5083732;28;20268;-81
2022/10/29 06:55:31;;;;;;;8.50;8.30;;;12.30;99.90;;;;;;5083750;28;20328;-81
2022/10/29 06:58:01;;;;;;;8.60;8.40;;;12.30;99.90;;;;;;5083158;28;20226;-81
2022/10/29 07:00:36;;;;;;;8.80;8.50;;;12.40;99.90;;;;;;5083712;28;20264;-81
2022/10/29 07:03:07;;;;;;;9.00;8.70;;;12.40;99.90;;;;;;5083781;28;20232;-81
2022/10/29 07:05:35;;;;;;;8.77;8.53;;;12.50;99.90;;;;;;5083683;28;20226;-81
2022/10/29 07:08:03;;;;;;;8.87;8.57;;;12.50;99.90;;;;;;5083816;28;20257;-81
2022/10/29 07:10:35;;;;;;;9.00;8.70;;;12.60;99.90;;;;;;5083574;28;20269;-81
2022/10/29 07:13:04;;;;;;;9.00;8.70;;;12.60;99.90;;;;;;5083864;28;20254;-81
2022/10/29 07:15:35;;;;;;;9.10;8.80;;;12.70;99.90;;;;;;5084438;28;20222;-81
2022/10/29 07:18:06;;;;;;;9.10;8.80;;;12.70;99.90;;;;;;5096385;28;20242;-82
2022/10/29 07:20:36;;;;;;;9.27;8.97;;;12.80;99.90;;;;;;5097386;28;20234;-81
2022/10/29 07:23:05;;;;;;;9.10;8.80;;;12.80;99.90;;;;;;5097209;28;20222;-81
2022/10/29 07:25:33;;;;;;;9.17;8.87;;;12.90;99.90;;;;;;5088899;28;20234;-81
2022/10/29 07:28:04;;;;;;;9.10;8.80;;;12.90;99.90;;;;;;5085370;28;20286;-81
2022/10/29 07:30:34;;;;;;;9.20;8.90;;;13.00;99.90;;;;;;5085333;28;20277;-81
2022/10/29 07:33:02;;;;;;;9.33;9.03;;;13.00;99.90;;;;;;5084117;28;20242;-81
2022/10/29 07:35:31;;;;;;;9.37;9.07;;;13.10;99.90;;;;;;5084722;28;20321;-81
2022/10/29 07:38:01;;;;;;;9.10;8.80;;;13.20;99.90;;;;;;5085503;28;20258;-81
2022/10/29 07:40:30;;;;;;;9.20;8.90;;;13.30;99.90;;;;;;5083338;28;20226;-81
2022/10/29 07:43:10;;;;;;;9.27;8.97;;;13.30;99.90;;;;;;5118261;22;20237;-86
2022/10/29 07:45:56;;;;;;;9.20;8.90;;;13.40;99.90;;;;;;5101245;28;20221;-85
2022/10/29 07:48:37;;;;;;;9.40;9.10;;;13.50;99.90;;;;;;5101124;28;20296;-85
2022/10/29 07:51:33;;;;;;;;;;;;;;;;;;;;;
2022/10/29 07:54:11;;;;;;;9.07;8.77;;;13.70;99.90;;;;;;5081487;28;20222;-84
2022/10/29 07:57:14;;;;;;;9.30;9.00;;;13.70;99.90;;;;;;5081152;28;20258;-84
2022/10/29 07:59:53;;;;;;;9.10;8.80;;;13.80;99.90;;;;;;5080993;28;20272;-85
2022/10/29 08:03:15;;;;;;;8.73;8.53;;;13.90;99.90;;;;;;5081107;28;20296;-85
2022/10/29 08:06:15;;;;;;;8.73;8.53;;;14.00;99.90;;;;;;5081760;28;20226;-84
2022/10/29 08:08:54;;;;;;;9.00;8.70;;;14.10;99.90;;;;;;5081960;28;21060;-85
2022/10/29 08:14:43;;;;;;;9.30;9.00;;;14.20;99.90;;;;;;5099648;28;20256;-84
2022/10/29 08:20:29;;;;;;;9.43;9.13;;;14.40;99.90;;;;;;5082204;28;20236;-84
2022/10/29 08:23:05;;;;;;;9.40;9.10;;;14.50;99.90;;;;;;5094403;28;20222;-85
2022/10/29 08:28:43;;;;;;;9.02;8.73;;;14.80;99.90;;;;;;5087933;28;20253;-85
2022/10/29 08:31:29;;;;;;;9.20;8.90;;;15.00;99.90;;;;;;5084664;28;20238;-85
2022/10/29 08:34:03;;;;;;;9.18;8.88;;;15.20;99.90;;;;;;5082812;28;20226;-85
2022/10/29 08:42:54;;;;;;;9.25;8.95;;;15.60;99.90;;;;;;5079090;28;20245;-85
2022/10/29 08:45:45;;;;;;;9.23;8.93;;;15.60;99.90;;;;;;5081628;28;20215;-85
2022/10/29 08:48:52;;;;;;;9.10;8.80;;;15.80;99.90;;;;;;5083730;28;20265;-85
2022/10/29 08:51:29;;;;;;;8.80;8.57;;;16.10;99.90;;;;;;5083197;28;20273;-85
2022/10/29 08:53:58;;;;;;;8.60;8.40;;;16.20;99.90;;;;;;5082410;28;20282;-85
2022/10/29 08:59:50;;;;;;;9.05;8.75;;;16.50;99.90;;;;;;5064552;28;20222;-85
2022/10/29 09:05:24;;;;;;;9.00;8.70;;;16.70;99.90;;;;;;5080063;28;20232;-86
2022/10/29 09:08:30;;;;;;;9.00;8.70;;;16.80;99.90;;;;;;5084656;28;20333;-85
2022/10/29 09:14:36;;;;;;;9.52;9.23;;;17.00;99.90;;;;;;5093164;28;20230;-86
2022/10/29 09:17:34;;;;;;;9.23;8.93;;;17.00;99.90;;;;;;5097467;28;20232;-86
2022/10/29 09:20:31;;;;;;;9.40;9.10;;;17.10;99.90;;;;;;5081218;28;20222;-86
2022/10/29 09:26:07;;;;;;;9.13;8.82;;;17.30;99.90;;;;;;5079865;28;20277;-86
2022/10/29 09:31:48;;;;;;;9.10;8.80;;;17.70;99.90;;;;;;5079515;28;20280;-86
2022/10/29 09:34:35;;;;;;;9.10;8.80;;;17.90;99.90;;;;;;5080383;28;20234;-86
2022/10/29 09:37:21;;;;;;;9.50;9.20;;;18.20;99.90;;;;;;5079423;28;20234;-85
2022/10/29 09:39:51;;;;;;;9.80;9.50;;;18.60;99.90;;;;;;5078653;28;20237;-86
2022/10/29 09:42:37;;;;;;;9.90;9.60;;;19.10;99.90;;;;;;5078657;28;20277;-86
2022/10/29 09:45:14;;;;;;;10.23;9.93;;;19.60;99.90;;;;;;5078584;28;20237;-86
2022/10/29 09:48:05;;;;;;;10.00;9.70;;;20.10;99.90;;;;;;5078661;28;20316;-86
2022/10/29 09:50:49;;;;;;;10.10;9.80;;;20.50;99.90;;;;;;5094158;28;20225;-86
2022/10/29 09:53:19;;;;;;;9.90;9.60;;;20.90;99.90;;;;;;5085877;28;20238;-86
2022/10/29 09:56:04;;;;;;;10.23;9.93;;;21.10;99.90;;;;;;5082515;28;20291;-86
2022/10/29 09:58:43;;;;;;;10.02;9.73;;;21.40;99.90;;;;;;5081048;28;20241;-86
2022/10/29 10:01:18;;;;;;;10.07;9.77;;;21.60;99.90;;;;;;5079984;28;20253;-86
2022/10/29 10:04:06;;;;;;;10.13;9.82;;;21.80;99.90;;;;;;5079270;28;20229;-86
2022/10/29 10:07:07;;;;;;;10.20;9.90;;;22.00;99.90;;;;;;5079832;28;20304;-86
2022/10/29 10:10:01;;;;;;;10.27;9.98;;;22.20;99.90;;;;;;5078471;28;20253;-86
2022/10/29 10:12:48;;;;;;;10.35;10.05;;;22.40;99.90;;;;;;5085266;28;20250;-86
2022/10/29 10:15:29;;;;;;;10.40;10.10;;;22.50;99.90;;;;;;5080799;28;20226;-86
2022/10/29 10:21:09;;;;;;;10.45;10.15;;;22.70;99.90;;;;;;5079233;28;20250;-86
2022/10/29 10:26:44;;;;;;;10.07;9.77;;;22.80;99.90;;;;;;5080399;28;20255;-86
2022/10/29 10:33:29;;;;;;;10.07;9.77;;;22.40;99.90;;;;;;5070915;28;20241;-86
2022/10/29 10:36:17;;;;;;;10.30;10.00;;;22.30;99.90;;;;;;5084388;28;20265;-86
2022/10/29 10:39:02;;;;;;;10.90;10.60;;;22.20;99.90;;;;;;5086966;28;20218;-87
2022/10/29 10:41:42;;;;;;;10.20;9.90;;;22.40;99.90;;;;;;5083674;28;20236;-86
2022/10/29 10:47:07;;;;;;;10.20;9.90;;;22.80;99.90;;;;;;5079731;28;20226;-86
2022/10/29 10:52:31;;;;;;;10.57;10.27;;;23.20;99.90;;;;;;5077307;28;20728;-86
2022/10/29 10:55:21;;;;;;;10.27;9.98;;;23.30;99.90;;;;;;5082122;28;20257;-86
2022/10/29 10:58:10;;;;;;;10.50;10.20;;;23.40;99.90;;;;;;5081759;28;20214;-86
2022/10/29 11:01:02;;;;;;;10.65;10.35;;;23.50;99.90;;;;;;5082043;28;20709;-86
2022/10/29 11:03:47;;;;;;;10.80;10.50;;;23.60;99.90;;;;;;5081309;28;20238;-86
2022/10/29 11:09:31;;;;;;;10.63;10.32;;;24.00;99.90;;;;;;5081884;28;20222;-86
2022/10/29 11:12:21;;;;;;;10.75;10.45;;;24.20;99.90;;;;;;5089245;28;20210;-86
2022/10/29 11:15:07;;;;;;;10.70;10.40;;;24.50;99.90;;;;;;5101369;28;20218;-85
2022/10/29 11:21:16;;;;;;;11.20;10.90;;;25.10;99.90;;;;;;5101570;28;20229;-86
2022/10/29 11:30:21;;;;;;;11.27;10.98;;;24.70;99.90;;;;;;5077821;28;20798;-86
2022/10/29 11:33:52;;;;;;;10.63;10.32;;;24.50;99.90;;;;;;5081852;28;20230;-86
2022/10/29 11:39:25;;;;;;;10.52;10.23;;;24.70;99.90;;;;;;5081688;28;20321;-86
2022/10/29 11:42:12;;;;;;;10.60;10.30;;;24.70;99.90;;;;;;5081790;28;20237;-86
2022/10/29 11:44:54;;;;;;;10.50;10.20;;;24.60;99.90;;;;;;5080320;28;20264;-86
2022/10/29 11:51:04;;;;;;;10.35;10.05;;;24.30;99.90;;;;;;5077077;28;20226;-86
2022/10/29 11:57:09;;;;;;;10.40;10.10;;;23.70;99.90;;;;;;5077715;28;20226;-86
2022/10/29 12:00:26;;;;;;;10.82;10.52;;;23.50;99.90;;;;;;5081622;28;20230;-85
2022/10/29 12:03:55;;;;;;;10.50;10.20;;;23.40;99.90;;;;;;5074739;28;20226;-86
2022/10/29 12:10:22;;;;;;;10.30;10.00;;;23.50;99.90;;;;;;5080108;28;20315;-86
2022/10/29 12:13:27;;;;;;;10.38;10.07;;;23.70;99.90;;;;;;5083411;28;20234;-86
2022/10/29 12:19:56;;;;;;;9.98;9.68;;;24.40;99.90;;;;;;5081533;28;20222;-86
2022/10/29 12:22:52;;;;;;;10.20;9.90;;;24.80;99.90;;;;;;5079995;28;20237;-86
2022/10/29 12:41:06;;;;;;;10.10;9.80;;;25.50;99.90;;;;;;5076667;28;20218;-86
2022/10/29 12:50:04;;;;;;;10.20;9.90;;;24.30;99.90;;;;;;5078318;28;20225;-86
2022/10/29 12:56:03;;;;;;;10.20;9.90;;;24.50;99.90;;;;;;5077001;28;20222;-86
2022/10/29 13:02:54;;;;;;;10.10;9.80;;;24.50;99.90;;;;;;5083420;28;20213;-87
2022/10/29 13:06:09;;;;;;;10.10;9.80;;;24.40;99.90;;;;;;5006324;28;20248;-86
2022/10/29 13:21:06;;;;;;;10.30;10.00;;;24.50;99.90;;;;;;5091351;28;20218;-86
2022/10/29 13:24:02;;;;;;;10.07;9.77;;;24.60;99.90;;;;;;5089144;28;20242;-86
2022/10/29 13:27:11;;;;;;;9.98;9.68;;;24.60;99.90;;;;;;5088234;28;20235;-86
2022/10/29 13:34:05;;;;;;;10.25;9.95;;;24.60;99.90;;;;;;5088326;28;20253;-86
2022/10/29 13:37:24;;;;;;;10.65;10.35;;;24.40;99.90;;;;;;5088762;28;20232;-86
2022/10/29 13:41:04;;;;;;;10.30;10.00;;;24.30;99.90;;;;;;5093827;28;20214;-86
2022/10/29 13:43:33;;;;;;;10.55;10.25;;;24.30;99.90;;;;;;5108273;22;20239;-81
2022/10/29 13:46:32;;;;;;;10.20;9.90;;;24.40;99.90;;;;;;5101093;28;20289;-81
2022/10/29 13:49:04;;;;;;;10.50;10.20;;;24.50;99.90;;;;;;5102253;28;20226;-81
2022/10/29 13:51:45;;;;;;;10.40;10.10;;;24.50;99.90;;;;;;5101086;28;20235;-81
2022/10/29 13:54:22;;;;;;;10.13;9.82;;;24.40;99.90;;;;;;5101268;28;20237;-81
2022/10/29 13:56:56;;;;;;;9.90;9.60;;;24.50;99.90;;;;;;5101117;28;20229;-81
2022/10/29 13:59:36;;;;;;;10.30;10.00;;;24.50;99.90;;;;;;5100588;28;20248;-81
2022/10/29 14:02:22;;;;;;;10.18;9.88;;;24.50;99.90;;;;;;5100239;28;20225;-81
2022/10/29 14:04:55;;;;;;;10.43;10.13;;;24.50;99.90;;;;;;5100833;28;20259;-81
2022/10/29 14:07:31;;;;;;;10.60;10.30;;;24.50;99.90;;;;;;5101481;28;20236;-81
2022/10/29 14:10:07;;;;;;;10.30;10.00;;;24.60;99.90;;;;;;5100335;28;20316;-81
2022/10/29 14:12:38;;;;;;;10.40;10.10;;;24.70;99.90;;;;;;5100915;28;20288;-81
2022/10/29 14:15:13;;;;;;;10.18;9.88;;;24.70;99.90;;;;;;5101261;28;20229;-81
2022/10/29 14:17:41;;;;;;;9.80;9.50;;;24.70;99.90;;;;;;5101057;28;20235;-81
2022/10/29 14:20:22;;;;;;;10.00;9.70;;;24.70;99.90;;;;;;5100266;28;20328;-81
2022/10/29 14:23:09;;;;;;;9.95;9.65;;;24.70;99.90;;;;;;5106515;28;20320;-81
2022/10/29 14:25:37;;;;;;;9.80;9.50;;;24.70;99.90;;;;;;5101370;28;20300;-82
2022/10/29 14:28:28;;;;;;;10.05;9.75;;;24.70;99.90;;;;;;5101203;28;20297;-82
2022/10/29 14:31:11;;;;;;;9.80;9.50;;;24.50;99.90;;;;;;5097372;28;20293;-81
2022/10/29 14:33:43;;;;;;;9.70;9.40;;;24.40;99.90;;;;;;5101218;28;20238;-82
2022/10/29 14:36:20;;;;;;;9.80;9.50;;;24.30;99.90;;;;;;5102780;28;20229;-82
2022/10/29 14:38:54;;;;;;;9.90;9.60;;;24.30;99.90;;;;;;5101740;28;20225;-82
2022/10/29 14:41:22;;;;;;;10.00;9.70;;;24.30;99.90;;;;;;5108578;27;20281;-82
2022/10/29 14:44:01;;;;;;;10.00;9.70;;;24.30;99.90;;;;;;5119200;27;20230;-82
2022/10/29 14:46:32;;;;;;;10.10;9.80;;;24.10;99.90;;;;;;5119162;27;20233;-82
2022/10/29 14:49:18;;;;;;;10.13;9.82;;;24.00;99.90;;;;;;5118679;28;20237;-82
2022/10/29 14:51:54;;;;;;;10.00;9.70;;;23.80;99.90;;;;;;5117104;28;20225;-82
2022/10/29 14:54:28;;;;;;;10.10;9.80;;;23.70;99.90;;;;;;5110326;28;20280;-82
2022/10/29 14:56:59;;;;;;;10.02;9.73;;;23.60;99.90;;;;;;5104138;28;20230;-82
2022/10/29 14:59:29;;;;;;;10.00;9.70;;;23.40;99.90;;;;;;5104032;28;20226;-82
2022/10/29 15:02:01;;;;;;;9.85;9.55;;;23.30;99.90;;;;;;5102404;28;20313;-82
2022/10/29 15:04:31;;;;;;;10.00;9.70;;;23.20;99.90;;;;;;5105190;28;20225;-82
2022/10/29 15:07:24;;;;;;;10.00;9.70;;;23.00;99.90;;;;;;5103275;28;20328;-82
2022/10/29 15:10:21;;;;;;;9.70;9.40;;;23.00;99.90;;;;;;5100798;28;20225;-82
2022/10/29 15:12:51;;;;;;;9.70;9.40;;;22.90;99.90;;;;;;5104184;28;20259;-82
2022/10/29 15:15:26;;;;;;;9.55;9.25;;;22.90;99.90;;;;;;5103921;28;20281;-82
2022/10/29 15:17:59;;;;;;;9.60;9.30;;;22.70;99.90;;;;;;5104087;28;20259;-82
2022/10/29 15:20:32;;;;;;;9.70;9.40;;;22.60;99.90;;;;;;5104128;28;20229;-82
2022/10/29 15:23:00;;;;;;;9.70;9.40;;;22.40;99.90;;;;;;5104357;28;20257;-82
2022/10/29 15:25:33;;;;;;;9.50;9.20;;;22.30;99.90;;;;;;5103142;28;20236;-81
2022/10/29 15:28:02;;;;;;;9.45;9.15;;;22.20;99.90;;;;;;5104023;28;20327;-82
2022/10/29 15:30:34;;;;;;;9.30;9.00;;;22.20;99.90;;;;;;5103133;28;20245;-81
2022/10/29 15:33:06;;;;;;;9.27;8.98;;;22.10;99.90;;;;;;5103625;28;20255;-82
2022/10/29 15:35:35;;;;;;;8.90;8.70;;;22.00;99.90;;;;;;5103395;28;20229;-81
2022/10/29 15:38:03;;;;;;;8.75;8.55;;;21.90;99.90;;;;;;5103815;28;20234;-82
2022/10/29 15:40:34;;;;;;;8.73;8.52;;;21.80;99.90;;;;;;5103991;28;20328;-81
2022/10/29 15:43:30;;;;;;;9.00;8.80;;;21.70;99.90;;;;;;5105738;28;20276;-81
2022/10/29 15:45:58;;;;;;;8.85;8.65;;;21.60;99.90;;;;;;5107107;28;20316;-81
2022/10/29 15:48:36;;;;;;;8.82;8.63;;;21.50;99.90;;;;;;5107234;28;20233;-81
2022/10/29 15:51:04;;;;;;;9.02;8.82;;;21.40;99.90;;;;;;5108147;28;20237;-82
2022/10/29 15:53:32;;;;;;;8.75;8.55;;;21.30;99.90;;;;;;5106328;28;20279;-82
2022/10/29 15:56:02;;;;;;;8.90;8.70;;;21.30;99.90;;;;;;5103324;28;20283;-81
2022/10/29 15:58:30;;;;;;;9.10;8.80;;;21.20;99.90;;;;;;5106050;28;20226;-81
2022/10/29 16:00:58;;;;;;;8.95;8.73;;;21.20;99.90;;;;;;5103927;28;20253;-82
2022/10/29 16:03:28;;;;;;;8.77;8.57;;;21.10;99.90;;;;;;5103960;28;20269;-81
2022/10/29 16:06:02;;;;;;;8.98;8.77;;;21.00;99.90;;;;;;5107327;28;20214;-82
2022/10/29 16:08:34;;;;;;;8.80;8.60;;;21.00;99.90;;;;;;5109008;28;20233;-82
2022/10/29 16:11:07;;;;;;;8.90;8.70;;;20.90;99.90;;;;;;5104504;28;20257;-81
2022/10/29 16:13:36;;;;;;;9.00;8.80;;;20.80;99.90;;;;;;5104162;28;20230;-81
2022/10/29 16:16:04;;;;;;;8.80;8.60;;;20.80;99.90;;;;;;5105256;28;20233;-81
2022/10/29 16:18:32;;;;;;;9.30;9.00;;;20.70;99.90;;;;;;5103647;28;20320;-82
2022/10/29 16:21:03;;;;;;;8.88;8.68;;;20.60;99.90;;;;;;5102009;28;20313;-82
2022/10/29 16:23:33;;;;;;;9.00;8.73;;;20.60;99.90;;;;;;5104444;28;20265;-81
2022/10/29 16:26:00;;;;;;;8.90;8.70;;;20.50;99.90;;;;;;5102798;28;20289;-81
2022/10/29 16:28:30;;;;;;;8.85;8.65;;;20.40;99.90;;;;;;5102762;28;20240;-82
2022/10/29 16:31:00;;;;;;;8.60;8.40;;;20.40;99.90;;;;;;5102385;28;20290;-82
2022/10/29 16:33:28;;;;;;;8.77;8.57;;;20.30;99.90;;;;;;5105648;28;20237;-81
2022/10/29 16:35:56;;;;;;;8.60;8.40;;;20.30;99.90;;;;;;5105695;28;20277;-83
2022/10/29 16:38:23;;;;;;;8.43;8.23;;;20.20;99.90;;;;;;5102935;28;20234;-83
2022/10/29 16:40:51;;;;;;;8.85;8.65;;;20.20;99.90;;;;;;5102394;28;20256;-83
2022/10/29 16:43:20;;;;;;;8.50;8.30;;;20.20;99.90;;;;;;5102541;28;20301;-82
2022/10/29 16:45:50;;;;;;;8.63;8.43;;;20.10;99.90;;;;;;5104672;28;20229;-83
2022/10/29 16:48:20;;;;;;;8.65;8.45;;;20.00;99.90;;;;;;5103893;28;20230;-82
2022/10/29 16:50:49;;;;;;;8.70;8.50;;;20.00;99.90;;;;;;5105436;28;20240;-82
2022/10/29 16:53:16;;;;;;;8.75;8.55;;;19.90;99.90;;;;;;5102177;28;20264;-82
2022/10/29 16:55:48;;;;;;;8.43;8.23;;;19.80;99.90;;;;;;5101501;28;20233;-82
2022/10/29 16:58:17;;;;;;;8.60;8.40;;;19.80;99.90;;;;;;5102320;28;20229;-83
2022/10/29 17:00:46;;;;;;;8.70;8.50;;;19.70;99.90;;;;;;5101805;28;20240;-83
2022/10/29 17:03:20;;;;;;;8.70;8.50;;;19.60;99.90;;;;;;5102258;28;20237;-82
2022/10/29 17:05:48;;;;;;;8.57;8.38;;;19.60;99.90;;;;;;5102765;28;20276;-82
2022/10/29 17:08:15;;;;;;;8.60;8.40;;;19.50;99.90;;;;;;5104282;28;20285;-82